Time;durP1;ratioP1;P1;durP2;ratioP2;P2;SDS_P1;SDS_P2;PMS_P1;PMS_P2;Temp;Humidity;BMP_temperature;BMP_pressure;BME280_temperature;BME280_humidity;BME280_pressure;Samples;Min_cycle;Max_cycle;Signal;HPM_P1;HPM_P2
2022/02/14 00:00:37;;;;;;;6.77;4.90;;;5.10;99.40;;;;;;4993975;28;20426;-65
2022/02/14 00:03:03;;;;;;;5.60;5.00;;;5.10;99.50;;;;;;4993831;28;20195;-66
2022/02/14 00:05:32;;;;;;;6.50;4.87;;;5.00;99.40;;;;;;4993697;28;20566;-66
2022/02/14 00:07:57;;;;;;;7.30;4.80;;;5.00;99.70;;;;;;4993490;28;20431;-66
2022/02/14 00:10:23;;;;;;;5.40;4.67;;;5.00;99.80;;;;;;4993758;28;20533;-66
2022/02/14 00:12:49;;;;;;;5.20;4.17;;;4.90;99.90;;;;;;4993273;28;20611;-66
2022/02/14 00:15:15;;;;;;;6.23;4.20;;;4.90;99.90;;;;;;4993563;28;20180;-66
2022/02/14 00:17:40;;;;;;;5.20;4.53;;;4.90;99.80;;;;;;4984620;28;20450;-66
2022/02/14 00:20:07;;;;;;;7.53;5.00;;;4.90;99.90;;;;;;4993821;28;20632;-66
2022/02/14 00:22:33;;;;;;;8.13;5.17;;;4.90;99.90;;;;;;4993781;28;20564;-66
2022/02/14 00:24:59;;;;;;;5.00;4.50;;;5.00;99.90;;;;;;4993244;28;20455;-66
2022/02/14 00:27:24;;;;;;;5.90;4.80;;;5.00;99.80;;;;;;4993507;28;20491;-66
2022/02/14 00:29:50;;;;;;;9.17;5.27;;;5.00;99.90;;;;;;4993630;28;20175;-66
2022/02/14 00:32:16;;;;;;;6.00;4.53;;;5.00;99.90;;;;;;4993421;28;20182;-66
2022/02/14 00:34:41;;;;;;;6.23;4.70;;;5.10;99.80;;;;;;4993101;28;20674;-66
2022/02/14 00:37:08;;;;;;;4.40;4.00;;;5.10;99.90;;;;;;4993182;28;21002;-66
2022/02/14 00:39:33;;;;;;;5.93;4.73;;;5.10;99.70;;;;;;4993051;28;20294;-66
2022/02/14 00:41:59;;;;;;;7.53;4.63;;;5.10;99.70;;;;;;4993170;28;20502;-66
2022/02/14 00:44:24;;;;;;;8.50;4.97;;;5.10;99.90;;;;;;4993211;28;20213;-66
2022/02/14 00:46:50;;;;;;;6.37;4.80;;;5.10;99.80;;;;;;4992798;28;20187;-66
2022/02/14 00:49:16;;;;;;;6.23;5.63;;;5.10;99.90;;;;;;4993173;28;20187;-66
2022/02/14 00:51:42;;;;;;;6.07;5.07;;;5.00;99.80;;;;;;4992890;28;20267;-66
2022/02/14 00:54:08;;;;;;;5.60;4.40;;;5.10;99.70;;;;;;4992933;28;20533;-66
2022/02/14 00:56:33;;;;;;;5.23;4.47;;;5.10;99.70;;;;;;4992814;28;20175;-66
2022/02/14 00:58:59;;;;;;;6.20;4.70;;;5.10;99.50;;;;;;4992790;28;20578;-66
2022/02/14 01:01:24;;;;;;;5.70;4.97;;;5.10;99.50;;;;;;4992440;28;20180;-66
2022/02/14 01:03:50;;;;;;;6.27;4.90;;;5.10;99.70;;;;;;4992493;28;20191;-66
2022/02/14 01:06:15;;;;;;;4.03;3.63;;;5.10;99.70;;;;;;4992476;28;20735;-66
2022/02/14 01:08:41;;;;;;;7.10;4.60;;;5.10;99.60;;;;;;4992361;28;20183;-66
2022/02/14 01:11:08;;;;;;;5.50;4.90;;;5.10;99.40;;;;;;4992604;28;20180;-66
2022/02/14 01:13:33;;;;;;;6.80;4.40;;;5.10;99.30;;;;;;4992237;28;20990;-66
2022/02/14 01:15:59;;;;;;;6.80;4.83;;;5.10;99.10;;;;;;4992292;28;20517;-66
2022/02/14 01:18:24;;;;;;;7.10;4.33;;;5.10;98.70;;;;;;4992462;28;20214;-66
2022/02/14 01:20:50;;;;;;;5.03;3.83;;;5.10;98.80;;;;;;4992078;28;20181;-66
2022/02/14 01:23:15;;;;;;;6.33;4.67;;;5.20;98.40;;;;;;4992570;28;20271;-66
2022/02/14 01:25:41;;;;;;;5.17;3.77;;;5.20;98.10;;;;;;4991863;28;20203;-66
2022/02/14 01:28:07;;;;;;;4.90;4.20;;;5.20;98.00;;;;;;4992196;28;20190;-66
2022/02/14 01:30:33;;;;;;;6.97;3.60;;;5.20;98.20;;;;;;4992591;28;20262;-66
2022/02/14 01:33:00;;;;;;;4.63;4.20;;;5.30;97.80;;;;;;4992031;28;20287;-66
2022/02/14 01:35:28;;;;;;;6.63;4.60;;;5.30;97.80;;;;;;4992032;28;20521;-66
2022/02/14 01:37:54;;;;;;;5.80;4.20;;;5.20;97.70;;;;;;4992071;28;20459;-66
2022/02/14 01:40:20;;;;;;;5.17;4.50;;;5.20;97.30;;;;;;4992308;28;20487;-66
2022/02/14 01:42:46;;;;;;;5.00;3.53;;;5.20;97.40;;;;;;4992063;28;20192;-67
2022/02/14 01:45:12;;;;;;;5.33;3.83;;;5.20;97.30;;;;;;4991292;28;20809;-66
2022/02/14 01:47:40;;;;;;;6.60;3.53;;;5.20;97.10;;;;;;4991760;28;20534;-66
2022/02/14 01:50:07;;;;;;;4.23;3.33;;;5.20;97.30;;;;;;4992013;28;20427;-66
2022/02/14 01:52:35;;;;;;;3.90;3.60;;;5.10;97.10;;;;;;4991974;28;20431;-66
2022/02/14 01:55:03;;;;;;;4.97;3.90;;;5.20;96.90;;;;;;4991389;28;20450;-66
2022/02/14 01:57:29;;;;;;;6.30;4.83;;;5.20;96.90;;;;;;4991925;28;20876;-66
2022/02/14 01:59:57;;;;;;;5.27;4.27;;;5.30;96.40;;;;;;4991572;28;20433;-66
2022/02/14 02:02:23;;;;;;;4.27;3.57;;;5.30;96.10;;;;;;4992146;28;20174;-66
2022/02/14 02:04:48;;;;;;;3.87;3.30;;;5.30;95.90;;;;;;4991719;28;20443;-66
2022/02/14 02:07:15;;;;;;;3.90;3.50;;;5.30;95.70;;;;;;4991768;28;20199;-66
2022/02/14 02:09:42;;;;;;;3.67;3.00;;;5.30;95.70;;;;;;4991823;28;20175;-66
2022/02/14 02:12:24;;;;;;;8.73;3.90;;;5.30;95.40;;;;;;4992888;28;20803;-66
2022/02/14 02:14:53;;;;;;;4.80;3.50;;;5.30;95.60;;;;;;4990079;28;20842;-66
2022/02/14 02:17:19;;;;;;;3.70;3.33;;;5.30;95.20;;;;;;4994821;28;20940;-66
2022/02/14 02:19:45;;;;;;;4.77;3.57;;;5.40;95.00;;;;;;4995553;28;20433;-66
2022/02/14 02:22:11;;;;;;;4.53;3.83;;;5.40;95.10;;;;;;4995945;28;20182;-66
2022/02/14 02:24:47;;;;;;;4.77;4.27;;;5.30;95.10;;;;;;4995741;28;20450;-66
2022/02/14 02:27:13;;;;;;;5.33;3.43;;;5.30;95.50;;;;;;4995052;28;20664;-67
2022/02/14 02:29:40;;;;;;;6.07;3.30;;;5.30;95.60;;;;;;4995644;28;20442;-67
2022/02/14 02:32:07;;;;;;;4.60;3.20;;;5.30;95.00;;;;;;4995483;28;20434;-66
2022/02/14 02:34:38;;;;;;;5.23;3.03;;;5.30;94.70;;;;;;4995418;28;20472;-66
2022/02/14 02:37:06;;;;;;;3.57;2.80;;;5.40;94.40;;;;;;4994935;28;20442;-66
2022/02/14 02:39:31;;;;;;;4.73;3.23;;;5.40;94.00;;;;;;4994598;28;20455;-66
2022/02/14 02:41:58;;;;;;;3.37;2.60;;;5.50;93.60;;;;;;4995316;28;20577;-66
2022/02/14 02:44:24;;;;;;;2.83;2.27;;;5.50;93.40;;;;;;4995230;28;20200;-67
2022/02/14 02:46:50;;;;;;;2.83;2.53;;;5.60;93.00;;;;;;4994549;28;20457;-67
2022/02/14 02:49:17;;;;;;;4.47;3.07;;;5.60;92.40;;;;;;4995444;28;20820;-67
2022/02/14 02:51:45;;;;;;;3.20;2.90;;;5.60;92.20;;;;;;4995008;28;20242;-67
2022/02/14 02:54:11;;;;;;;8.67;2.90;;;5.60;92.10;;;;;;4994780;28;20537;-66
2022/02/14 02:56:39;;;;;;;5.07;2.60;;;5.70;91.60;;;;;;4994661;28;20525;-66
2022/02/14 02:59:05;;;;;;;3.80;2.80;;;5.70;91.20;;;;;;4994549;28;20603;-66
2022/02/14 03:01:31;;;;;;;4.53;3.17;;;5.70;90.80;;;;;;4994908;28;20438;-66
2022/02/14 03:03:57;;;;;;;3.70;2.60;;;5.70;90.80;;;;;;4995066;28;20818;-66
2022/02/14 03:06:23;;;;;;;4.20;2.93;;;5.70;90.30;;;;;;4994302;28;20437;-66
2022/02/14 03:08:49;;;;;;;2.40;2.10;;;5.70;90.60;;;;;;4994747;28;20791;-66
2022/02/14 03:11:19;;;;;;;3.40;2.20;;;5.70;90.00;;;;;;4994679;28;20487;-66
2022/02/14 03:13:45;;;;;;;2.47;2.30;;;5.60;89.90;;;;;;4994291;28;20549;-66
2022/02/14 03:16:12;;;;;;;4.47;2.60;;;5.60;89.50;;;;;;4994312;28;20427;-66
2022/02/14 03:18:38;;;;;;;3.00;2.80;;;5.60;89.00;;;;;;4994647;28;20457;-66
2022/02/14 03:21:05;;;;;;;3.00;2.47;;;5.60;89.10;;;;;;4994243;28;20481;-66
2022/02/14 03:23:30;;;;;;;2.50;2.20;;;5.60;88.70;;;;;;4993898;28;20867;-66
2022/02/14 03:25:56;;;;;;;3.60;2.50;;;5.60;88.40;;;;;;4994142;28;20458;-66
2022/02/14 03:28:21;;;;;;;3.40;2.30;;;5.60;88.50;;;;;;4994510;28;20214;-66
2022/02/14 03:30:47;;;;;;;4.50;2.47;;;5.60;87.50;;;;;;4994245;28;20175;-66
2022/02/14 03:33:13;;;;;;;3.33;2.40;;;5.60;87.70;;;;;;4994362;28;20227;-66
2022/02/14 03:35:39;;;;;;;3.23;2.57;;;5.60;87.50;;;;;;4993799;28;20711;-66
2022/02/14 03:38:06;;;;;;;3.80;2.50;;;5.60;87.20;;;;;;4993977;28;20532;-66
2022/02/14 03:40:33;;;;;;;5.00;2.53;;;5.60;87.20;;;;;;4994133;28;20289;-66
2022/02/14 03:43:00;;;;;;;2.73;2.27;;;5.60;86.40;;;;;;4994246;28;20430;-66
2022/02/14 03:45:26;;;;;;;2.60;2.40;;;5.60;86.30;;;;;;4993633;28;20430;-66
2022/02/14 03:47:52;;;;;;;1.93;1.83;;;5.60;86.60;;;;;;4994195;28;20461;-66
2022/02/14 03:50:18;;;;;;;5.40;2.67;;;5.60;86.40;;;;;;4993791;28;20442;-66
2022/02/14 03:52:43;;;;;;;3.43;2.30;;;5.50;86.30;;;;;;4994030;28;20179;-66
2022/02/14 03:55:09;;;;;;;4.47;2.40;;;5.60;86.00;;;;;;4993902;28;20199;-66
2022/02/14 03:57:35;;;;;;;4.10;2.60;;;5.60;85.60;;;;;;4993854;28;20175;-66
2022/02/14 04:00:00;;;;;;;2.63;2.43;;;5.60;85.40;;;;;;4993687;28;20176;-66
2022/02/14 04:02:26;;;;;;;4.90;2.30;;;5.60;85.30;;;;;;4993725;28;20676;-66
2022/02/14 04:04:55;;;;;;;4.00;2.70;;;5.60;84.90;;;;;;4993707;28;20223;-66
2022/02/14 04:07:21;;;;;;;3.10;2.57;;;5.60;84.50;;;;;;4993456;28;20259;-66
2022/02/14 04:09:47;;;;;;;2.50;2.30;;;5.60;84.90;;;;;;4993622;28;20509;-66
2022/02/14 04:12:12;;;;;;;4.47;2.30;;;5.60;83.90;;;;;;4993627;28;20180;-66
2022/02/14 04:14:38;;;;;;;5.10;2.60;;;5.70;83.60;;;;;;4993563;28;20195;-66
2022/02/14 04:17:03;;;;;;;3.90;2.17;;;5.70;83.40;;;;;;4993271;28;20183;-66
2022/02/14 04:19:29;;;;;;;2.57;2.37;;;5.60;83.20;;;;;;4993305;28;20217;-67
2022/02/14 04:21:54;;;;;;;3.07;2.10;;;5.60;82.70;;;;;;4993592;28;20559;-66
2022/02/14 04:24:20;;;;;;;2.47;2.27;;;5.60;83.10;;;;;;4993522;28;20203;-66
2022/02/14 04:26:46;;;;;;;3.53;2.70;;;5.60;82.50;;;;;;4993156;28;20171;-67
2022/02/14 04:29:11;;;;;;;4.40;2.47;;;5.60;82.90;;;;;;4993077;28;20431;-67
2022/02/14 04:31:37;;;;;;;2.37;2.17;;;5.60;83.20;;;;;;4993008;28;20187;-66
2022/02/14 04:34:02;;;;;;;3.00;2.10;;;5.50;83.70;;;;;;4992497;28;20216;-66
2022/02/14 04:36:28;;;;;;;3.30;2.90;;;5.50;83.90;;;;;;4993042;28;20184;-67
2022/02/14 04:38:53;;;;;;;2.33;2.13;;;5.40;84.20;;;;;;4992700;28;20204;-65
2022/02/14 04:41:19;;;;;;;2.57;2.30;;;5.40;83.90;;;;;;4993062;28;20322;-66
2022/02/14 04:43:44;;;;;;;3.57;2.13;;;5.30;83.70;;;;;;4992717;28;20210;-67
2022/02/14 04:46:10;;;;;;;3.67;2.43;;;5.40;84.00;;;;;;4992768;28;20175;-66
2022/02/14 04:48:35;;;;;;;2.53;2.30;;;5.40;83.80;;;;;;4992818;28;20380;-66
2022/02/14 04:51:01;;;;;;;2.73;2.50;;;5.30;83.80;;;;;;4992286;28;20563;-67
2022/02/14 04:53:26;;;;;;;3.20;2.90;;;5.30;84.30;;;;;;4992526;28;20695;-65
2022/02/14 04:55:52;;;;;;;7.20;2.83;;;5.30;84.60;;;;;;4992287;28;20183;-66
2022/02/14 04:58:17;;;;;;;3.20;2.40;;;5.20;84.60;;;;;;4992762;28;20265;-66
2022/02/14 05:00:43;;;;;;;2.50;2.23;;;5.10;85.30;;;;;;4992774;28;20187;-67
2022/02/14 05:03:08;;;;;;;4.60;2.27;;;5.10;85.90;;;;;;4992034;28;20191;-67
2022/02/14 05:05:34;;;;;;;5.27;2.30;;;5.00;86.00;;;;;;4992720;28;20596;-66
2022/02/14 05:07:59;;;;;;;3.80;2.70;;;5.00;86.70;;;;;;4992360;28;20263;-66
2022/02/14 05:10:25;;;;;;;5.53;2.60;;;4.90;86.20;;;;;;4992525;28;20175;-65
2022/02/14 05:12:50;;;;;;;5.30;3.37;;;5.00;87.70;;;;;;4991590;28;20183;-66
2022/02/14 05:15:16;;;;;;;3.40;2.70;;;4.90;87.90;;;;;;4992472;28;20190;-66
2022/02/14 05:17:42;;;;;;;5.57;2.47;;;4.90;88.40;;;;;;4992774;28;20184;-66
2022/02/14 05:20:08;;;;;;;2.73;2.17;;;4.90;89.60;;;;;;4992709;28;20186;-66
2022/02/14 05:22:33;;;;;;;2.43;2.00;;;4.90;89.20;;;;;;4990018;28;20258;-66
2022/02/14 05:24:59;;;;;;;5.53;2.87;;;4.80;90.00;;;;;;4992248;28;20665;-66
2022/02/14 05:27:24;;;;;;;4.80;2.20;;;4.90;88.30;;;;;;4992287;28;20881;-67
2022/02/14 05:29:50;;;;;;;3.90;2.10;;;4.90;87.20;;;;;;4991973;28;20234;-65
2022/02/14 05:32:16;;;;;;;3.53;1.97;;;5.00;86.70;;;;;;4992320;28;20229;-66
2022/02/14 05:34:41;;;;;;;2.87;2.20;;;5.00;87.80;;;;;;4992194;28;20215;-66
2022/02/14 05:37:07;;;;;;;4.17;2.40;;;5.10;86.30;;;;;;4992115;28;20238;-67
2022/02/14 05:39:32;;;;;;;4.57;2.40;;;5.10;86.90;;;;;;4992321;28;20548;-66
2022/02/14 05:41:58;;;;;;;5.50;3.77;;;5.10;86.60;;;;;;4992214;28;20200;-66
2022/02/14 05:44:24;;;;;;;3.53;2.83;;;5.10;86.30;;;;;;4992130;28;20199;-67
2022/02/14 05:46:49;;;;;;;2.40;2.23;;;5.10;86.10;;;;;;4991153;28;20183;-66
2022/02/14 05:49:15;;;;;;;3.87;2.47;;;5.10;85.90;;;;;;4992012;28;20203;-66
2022/02/14 05:51:40;;;;;;;2.43;2.13;;;5.10;86.30;;;;;;4992154;28;20178;-66
2022/02/14 05:54:07;;;;;;;5.20;2.60;;;5.10;86.80;;;;;;4991384;28;20214;-67
2022/02/14 05:56:32;;;;;;;4.80;2.60;;;5.10;86.30;;;;;;4991449;28;20745;-66
2022/02/14 05:59:00;;;;;;;3.97;2.77;;;5.20;85.90;;;;;;4991708;28;20553;-65
2022/02/14 06:01:26;;;;;;;4.80;2.77;;;5.20;86.30;;;;;;4985744;28;20179;-66
2022/02/14 06:03:51;;;;;;;5.40;2.63;;;5.30;86.60;;;;;;4991626;28;20442;-66
2022/02/14 06:06:17;;;;;;;4.17;2.97;;;5.40;85.60;;;;;;4991263;28;20661;-66
2022/02/14 06:08:42;;;;;;;3.53;2.40;;;5.30;85.40;;;;;;4992348;28;20171;-66
2022/02/14 06:11:08;;;;;;;4.27;2.80;;;5.40;86.40;;;;;;4989928;28;20694;-66
2022/02/14 06:13:34;;;;;;;4.13;2.90;;;5.40;86.60;;;;;;4991669;28;20214;-66
2022/02/14 06:15:59;;;;;;;4.53;3.33;;;5.30;86.30;;;;;;4991851;28;20274;-66
2022/02/14 06:18:25;;;;;;;2.93;2.63;;;5.40;86.70;;;;;;4985724;28;20542;-67
2022/02/14 06:20:51;;;;;;;7.93;3.20;;;5.40;87.20;;;;;;4991936;28;20179;-66
2022/02/14 06:23:16;;;;;;;3.63;2.70;;;5.40;87.00;;;;;;4991814;28;20195;-67
2022/02/14 06:25:42;;;;;;;7.77;2.93;;;5.40;88.10;;;;;;4991520;28;20211;-66
2022/02/14 06:28:08;;;;;;;3.67;2.50;;;5.40;87.40;;;;;;4991938;28;20552;-67
2022/02/14 06:30:33;;;;;;;6.23;3.43;;;5.40;88.00;;;;;;4991831;28;20186;-67
2022/02/14 06:32:59;;;;;;;7.93;3.00;;;5.40;88.00;;;;;;4983396;28;20176;-65
2022/02/14 06:35:25;;;;;;;8.63;2.87;;;5.40;88.40;;;;;;4991691;28;20595;-66
2022/02/14 06:37:51;;;;;;;5.47;3.77;;;5.40;88.50;;;;;;4983496;28;20510;-67
2022/02/14 06:40:17;;;;;;;5.73;2.33;;;5.40;89.20;;;;;;4981780;28;20174;-66
2022/02/14 06:42:47;;;;;;;3.60;3.10;;;5.50;89.20;;;;;;4983825;28;20207;-65
2022/02/14 06:45:14;;;;;;;7.30;3.33;;;5.50;88.80;;;;;;4988877;28;20464;-66
2022/02/14 06:47:39;;;;;;;3.30;2.33;;;5.50;88.90;;;;;;4975072;28;20450;-66
2022/02/14 06:50:05;;;;;;;3.33;3.03;;;5.40;89.30;;;;;;4973339;28;20829;-66
2022/02/14 06:52:31;;;;;;;2.93;2.73;;;5.40;89.30;;;;;;4976289;28;20184;-67
2022/02/14 06:54:56;;;;;;;5.67;2.97;;;5.50;89.30;;;;;;4975292;28;20456;-66
2022/02/14 06:57:22;;;;;;;3.00;2.53;;;5.50;90.00;;;;;;4980431;28;20204;-67
2022/02/14 06:59:47;;;;;;;8.10;3.20;;;5.60;89.40;;;;;;4992536;28;20301;-66
2022/02/14 07:02:13;;;;;;;9.13;3.23;;;5.50;89.10;;;;;;4994565;28;20180;-66
2022/02/14 07:04:38;;;;;;;5.57;2.80;;;5.60;89.60;;;;;;4995054;28;20273;-66
2022/02/14 07:07:04;;;;;;;3.97;2.50;;;5.60;90.00;;;;;;4994674;28;20172;-66
2022/02/14 07:09:29;;;;;;;4.70;2.63;;;5.60;89.60;;;;;;4995095;28;20187;-67
2022/02/14 07:11:55;;;;;;;4.30;3.30;;;5.60;90.00;;;;;;4994739;28;20211;-66
2022/02/14 07:14:20;;;;;;;4.23;2.63;;;5.60;89.80;;;;;;4994625;28;20226;-66
2022/02/14 07:16:46;;;;;;;6.53;3.03;;;5.60;90.10;;;;;;4994252;28;20622;-66
2022/02/14 07:19:11;;;;;;;3.30;2.87;;;5.70;90.40;;;;;;4992963;28;20205;-66
2022/02/14 07:21:37;;;;;;;3.70;2.70;;;5.70;91.40;;;;;;4994615;28;20171;-65
2022/02/14 07:24:03;;;;;;;5.30;2.80;;;5.80;90.60;;;;;;4994468;28;20250;-66
2022/02/14 07:26:29;;;;;;;4.00;3.10;;;5.80;90.70;;;;;;4994667;28;20179;-67
2022/02/14 07:28:54;;;;;;;7.13;4.00;;;5.90;90.30;;;;;;4992611;28;20172;-66
2022/02/14 07:31:20;;;;;;;7.43;3.00;;;5.90;90.40;;;;;;4953749;28;20184;-66
2022/02/14 07:33:45;;;;;;;4.60;2.90;;;6.10;90.70;;;;;;4964319;28;20218;-67
2022/02/14 07:36:11;;;;;;;7.20;3.47;;;6.40;89.40;;;;;;4981818;28;20181;-67
2022/02/14 07:38:36;;;;;;;5.90;2.50;;;6.70;90.20;;;;;;4988706;28;20199;-67
2022/02/14 07:41:02;;;;;;;5.57;3.43;;;6.90;88.10;;;;;;4990575;28;20175;-65
2022/02/14 07:43:29;;;;;;;5.30;3.63;;;7.20;87.30;;;;;;4983027;28;20218;-65
2022/02/14 07:45:55;;;;;;;6.73;3.33;;;7.40;86.70;;;;;;4985538;28;20163;-65
2022/02/14 07:48:20;;;;;;;10.43;4.00;;;7.60;85.50;;;;;;4983199;28;20459;-65
2022/02/14 07:50:47;;;;;;;12.63;4.93;;;7.80;86.80;;;;;;4983745;28;20206;-65
2022/02/14 07:53:16;;;;;;;9.23;3.03;;;8.00;84.50;;;;;;4989426;28;20458;-65
2022/02/14 07:55:41;;;;;;;6.17;3.97;;;8.40;84.10;;;;;;4993959;28;20229;-65
2022/02/14 07:58:07;;;;;;;3.10;2.77;;;8.70;84.60;;;;;;4990711;28;20992;-65
2022/02/14 08:00:32;;;;;;;6.23;3.40;;;9.00;81.60;;;;;;4965207;28;20184;-65
2022/02/14 08:02:58;;;;;;;4.70;3.40;;;9.00;80.90;;;;;;4993588;28;20629;-65
2022/02/14 08:05:23;;;;;;;5.40;3.63;;;9.20;81.10;;;;;;4993611;28;20176;-65
2022/02/14 08:07:49;;;;;;;5.80;3.67;;;9.20;79.70;;;;;;4994011;28;20194;-65
2022/02/14 08:10:15;;;;;;;6.07;3.33;;;9.30;80.00;;;;;;4987015;28;20192;-64
2022/02/14 08:12:40;;;;;;;4.50;3.53;;;9.60;79.50;;;;;;4991588;28;20438;-65
2022/02/14 08:15:06;;;;;;;9.10;4.80;;;9.80;78.10;;;;;;4993326;28;20211;-65
2022/02/14 08:17:33;;;;;;;6.80;3.90;;;9.90;77.60;;;;;;4993529;28;20180;-65
2022/02/14 08:20:00;;;;;;;5.77;2.80;;;10.30;77.10;;;;;;4986392;28;20487;-65
2022/02/14 08:22:29;;;;;;;6.23;3.40;;;10.80;75.90;;;;;;4967802;28;20447;-64
2022/02/14 08:24:55;;;;;;;5.57;3.33;;;10.80;74.10;;;;;;4984473;28;20984;-65
2022/02/14 08:27:21;;;;;;;6.60;3.23;;;10.80;74.30;;;;;;4993013;28;20446;-65
2022/02/14 08:29:47;;;;;;;10.80;4.40;;;11.00;73.80;;;;;;4992340;28;20175;-65
2022/02/14 08:32:16;;;;;;;5.30;3.43;;;11.20;73.40;;;;;;4992894;28;20804;-65
2022/02/14 08:34:42;;;;;;;5.37;2.93;;;11.40;71.90;;;;;;4991557;28;20238;-65
2022/02/14 08:37:11;;;;;;;5.03;3.43;;;11.70;71.70;;;;;;4986630;28;20443;-65
2022/02/14 08:39:38;;;;;;;6.07;3.93;;;11.90;71.00;;;;;;4993214;28;20458;-65
2022/02/14 08:42:04;;;;;;;4.33;3.43;;;12.20;69.20;;;;;;4991990;28;20841;-65
2022/02/14 08:44:30;;;;;;;7.73;3.83;;;12.60;68.00;;;;;;4992888;28;20829;-65
2022/02/14 08:46:56;;;;;;;5.70;4.47;;;13.00;66.90;;;;;;4992783;28;20443;-65
2022/02/14 08:49:24;;;;;;;8.43;3.97;;;12.50;66.90;;;;;;4992709;28;20234;-65
2022/02/14 08:51:51;;;;;;;4.73;3.37;;;12.80;67.00;;;;;;4991675;28;20186;-65
2022/02/14 08:54:16;;;;;;;7.00;3.50;;;13.00;65.50;;;;;;4992749;28;20892;-64
2022/02/14 08:56:42;;;;;;;7.87;4.03;;;13.70;65.40;;;;;;4990940;28;20436;-65
2022/02/14 08:59:07;;;;;;;6.17;3.93;;;14.30;61.60;;;;;;4992919;28;20681;-65
2022/02/14 09:01:33;;;;;;;5.93;3.10;;;14.50;61.00;;;;;;4990504;28;20525;-65
2022/02/14 09:03:59;;;;;;;5.80;3.33;;;14.10;61.10;;;;;;4992498;28;20235;-64
2022/02/14 09:06:27;;;;;;;7.93;4.83;;;13.90;60.90;;;;;;4988387;28;20216;-66
2022/02/14 09:08:53;;;;;;;5.20;3.60;;;13.70;61.00;;;;;;4976190;28;20186;-65
2022/02/14 09:11:19;;;;;;;8.80;3.87;;;14.10;60.70;;;;;;4988255;28;20466;-65
2022/02/14 09:13:45;;;;;;;5.37;3.53;;;14.80;59.80;;;;;;4992562;28;20545;-66
2022/02/14 09:16:11;;;;;;;7.57;3.40;;;14.90;59.10;;;;;;4991920;28;20210;-65
2022/02/14 09:18:38;;;;;;;7.07;3.00;;;15.60;57.20;;;;;;4982794;28;20203;-65
2022/02/14 09:21:05;;;;;;;5.70;3.50;;;14.90;57.00;;;;;;4978490;28;20639;-65
2022/02/14 09:23:31;;;;;;;6.50;3.47;;;14.20;58.70;;;;;;4986213;28;20458;-65
2022/02/14 09:25:57;;;;;;;5.10;3.00;;;14.80;58.20;;;;;;5006852;28;20769;-65
2022/02/14 09:28:24;;;;;;;5.17;3.57;;;15.40;58.00;;;;;;4966879;28;20842;-65
2022/02/14 09:30:49;;;;;;;6.90;3.63;;;15.20;57.80;;;;;;4984799;28;20450;-65
2022/02/14 09:33:15;;;;;;;4.60;3.90;;;14.70;58.00;;;;;;4985245;28;20512;-65
2022/02/14 09:35:40;;;;;;;8.40;4.20;;;13.70;59.40;;;;;;4983134;28;20196;-65
2022/02/14 09:38:06;;;;;;;4.53;3.30;;;13.20;61.70;;;;;;4988975;28;20210;-65
2022/02/14 09:40:33;;;;;;;4.83;3.60;;;13.00;63.60;;;;;;4977625;28;20175;-65
2022/02/14 09:43:00;;;;;;;6.37;3.10;;;13.00;64.60;;;;;;4987593;28;20262;-65
2022/02/14 09:45:27;;;;;;;4.17;3.30;;;13.10;64.20;;;;;;4988453;28;21000;-65
2022/02/14 09:48:00;;;;;;;3.87;3.10;;;13.30;63.80;;;;;;4988886;28;20458;-65
2022/02/14 09:50:26;;;;;;;4.47;2.80;;;13.10;63.30;;;;;;4982607;28;20438;-65
2022/02/14 09:52:52;;;;;;;6.10;4.03;;;12.90;64.50;;;;;;4988819;28;20504;-65
2022/02/14 09:55:19;;;;;;;5.30;3.40;;;12.40;65.30;;;;;;4988474;28;20525;-65
2022/02/14 09:57:45;;;;;;;7.60;3.40;;;12.20;66.10;;;;;;4988749;28;20183;-65
2022/02/14 10:00:11;;;;;;;4.97;3.30;;;12.20;66.90;;;;;;4988504;28;20448;-65
2022/02/14 10:02:37;;;;;;;4.33;2.90;;;12.20;67.70;;;;;;4988731;28;20442;-65
2022/02/14 10:05:12;;;;;;;11.40;3.03;;;12.20;68.80;;;;;;4981841;28;20450;-64
2022/02/14 10:07:49;;;;;;;6.23;2.53;;;12.30;68.90;;;;;;4984617;28;20202;-65
2022/02/14 10:10:25;;;;;;;8.90;4.80;;;12.30;69.10;;;;;;4984329;28;20518;-64
2022/02/14 10:12:55;;;;;;;6.23;3.40;;;12.10;70.10;;;;;;4989748;28;20552;-65
2022/02/14 10:15:22;;;;;;;9.40;3.80;;;12.10;70.50;;;;;;4991646;28;21044;-65
2022/02/14 10:17:52;;;;;;;3.93;2.80;;;12.00;71.30;;;;;;4991134;28;20489;-64
2022/02/14 10:20:23;;;;;;;6.00;3.80;;;12.30;71.60;;;;;;4990035;28;20435;-65
2022/02/14 10:22:54;;;;;;;3.50;2.67;;;12.60;71.60;;;;;;4991840;28;20438;-65
2022/02/14 10:25:40;;;;;;;3.20;2.90;;;12.70;71.10;;;;;;4991577;28;20565;-66
2022/02/14 10:28:13;;;;;;;4.47;2.83;;;12.70;71.30;;;;;;4990089;28;20539;-65
2022/02/14 10:31:03;;;;;;;4.23;2.77;;;12.50;71.90;;;;;;4991633;28;20454;-65
2022/02/14 10:33:52;;;;;;;6.60;3.07;;;12.60;72.70;;;;;;4993876;28;20857;-65
2022/02/14 10:36:25;;;;;;;3.00;2.40;;;12.70;73.70;;;;;;4986192;28;20514;-65
2022/02/14 10:38:51;;;;;;;4.53;3.30;;;12.60;74.50;;;;;;4995413;28;20858;-65
2022/02/14 10:41:17;;;;;;;5.43;2.80;;;12.70;74.50;;;;;;4994458;28;20426;-65
2022/02/14 10:43:43;;;;;;;7.67;4.60;;;12.90;74.70;;;;;;4994626;28;20204;-65
2022/02/14 10:46:16;;;;;;;4.90;3.10;;;13.00;75.70;;;;;;4994706;28;20437;-65
2022/02/14 10:48:43;;;;;;;4.47;3.00;;;13.30;76.10;;;;;;4995146;28;20203;-65
2022/02/14 10:51:16;;;;;;;5.57;3.27;;;13.40;75.80;;;;;;4992345;28;20474;-65
2022/02/14 10:53:44;;;;;;;4.90;3.20;;;13.60;75.60;;;;;;4992970;28;20896;-65
2022/02/14 10:56:10;;;;;;;5.53;2.80;;;13.70;75.30;;;;;;4990374;28;20481;-65
2022/02/14 10:58:35;;;;;;;6.70;3.20;;;13.90;75.20;;;;;;4994668;28;20462;-65
2022/02/14 11:01:01;;;;;;;8.77;3.07;;;13.70;75.50;;;;;;4985431;28;20183;-65
2022/02/14 11:03:27;;;;;;;5.83;3.10;;;13.70;75.80;;;;;;4991071;28;20543;-64
2022/02/14 11:05:53;;;;;;;8.70;2.43;;;13.80;76.60;;;;;;4986034;28;20184;-64
2022/02/14 11:08:21;;;;;;;3.83;2.93;;;13.90;76.40;;;;;;4989800;28;20184;-63
2022/02/14 11:10:50;;;;;;;4.40;2.50;;;14.10;76.00;;;;;;4993797;28;20438;-65
2022/02/14 11:13:17;;;;;;;2.30;2.10;;;14.00;77.00;;;;;;4994704;28;20540;-64
2022/02/14 11:15:46;;;;;;;13.23;3.73;;;14.10;76.30;;;;;;4990368;28;20450;-64
2022/02/14 11:18:17;;;;;;;3.53;2.83;;;14.20;77.50;;;;;;4992820;28;20544;-64
2022/02/14 11:20:44;;;;;;;6.40;3.20;;;14.00;78.40;;;;;;4993686;28;20437;-64
2022/02/14 11:23:13;;;;;;;3.67;3.27;;;14.00;79.20;;;;;;4994682;28;20481;-64
2022/02/14 11:25:47;;;;;;;9.27;3.07;;;13.90;79.70;;;;;;4988291;28;20431;-65
2022/02/14 11:28:28;;;;;;;6.07;2.90;;;14.20;81.20;;;;;;4985122;28;20437;-64
2022/02/14 11:31:13;;;;;;;6.37;3.97;;;13.80;82.60;;;;;;4993518;28;20470;-64
2022/02/14 11:33:59;;;;;;;5.73;2.37;;;13.80;83.60;;;;;;4985680;28;20466;-66
2022/02/14 11:36:27;;;;;;;5.53;2.50;;;13.50;84.10;;;;;;4972458;28;20444;-66
2022/02/14 11:38:59;;;;;;;4.93;2.80;;;13.30;84.50;;;;;;4974721;28;20537;-67
2022/02/14 11:41:32;;;;;;;3.00;2.00;;;13.00;86.10;;;;;;4974401;28;20436;-67
2022/02/14 11:44:16;;;;;;;4.00;2.93;;;12.90;86.50;;;;;;4976838;28;20987;-66
2022/02/14 11:46:53;;;;;;;3.63;1.83;;;12.80;88.20;;;;;;4975253;28;20463;-67
2022/02/14 11:49:19;;;;;;;5.50;3.17;;;12.80;89.40;;;;;;4974923;28;20538;-67
2022/02/14 11:51:52;;;;;;;3.30;2.77;;;12.80;89.50;;;;;;4981366;28;20434;-67
2022/02/14 11:54:37;;;;;;;3.73;2.77;;;12.80;89.30;;;;;;4977701;28;20973;-69
2022/02/14 11:57:23;;;;;;;11.30;4.23;;;12.70;88.90;;;;;;4974294;28;20415;-67
2022/02/14 11:59:50;;;;;;;4.30;2.23;;;12.80;89.20;;;;;;4975835;28;20462;-67
2022/02/14 12:02:28;;;;;;;2.67;2.27;;;12.70;90.10;;;;;;4976196;28;20435;-67
2022/02/14 12:04:55;;;;;;;8.07;2.50;;;12.60;90.70;;;;;;4977359;28;20581;-67
2022/02/14 12:07:25;;;;;;;2.47;2.03;;;12.60;90.90;;;;;;4977672;28;20509;-67
2022/02/14 12:09:57;;;;;;;3.63;2.53;;;12.60;90.50;;;;;;4978863;28;20514;-67
2022/02/14 12:12:41;;;;;;;3.10;2.10;;;12.80;90.40;;;;;;4977579;28;20567;-67
2022/02/14 12:21:08;;;;;;;2.60;2.27;;;13.10;91.10;;;;;;4992899;28;20510;-66
2022/02/14 12:23:37;;;;;;;3.73;2.03;;;13.10;92.00;;;;;;4993585;28;20468;-66
2022/02/14 12:26:05;;;;;;;3.30;2.00;;;13.20;92.30;;;;;;4991141;28;20474;-66
2022/02/14 12:28:32;;;;;;;2.10;1.90;;;12.90;92.60;;;;;;4987688;28;20434;-66
2022/02/14 12:30:58;;;;;;;3.50;2.73;;;12.90;92.90;;;;;;4992994;28;20881;-66
2022/02/14 12:33:25;;;;;;;1.97;1.80;;;12.90;93.20;;;;;;4991579;28;20462;-65
2022/02/14 12:35:54;;;;;;;3.10;2.20;;;12.90;93.70;;;;;;4992358;28;20461;-66
2022/02/14 12:38:24;;;;;;;3.80;2.00;;;12.80;94.10;;;;;;4992917;28;20473;-66
2022/02/14 12:40:58;;;;;;;2.47;2.27;;;12.80;94.00;;;;;;4987570;28;20457;-66
2022/02/14 12:43:26;;;;;;;3.73;2.00;;;12.90;93.90;;;;;;4991430;28;20801;-65
2022/02/14 12:45:53;;;;;;;2.63;2.43;;;12.80;94.10;;;;;;4991865;28;20505;-65
2022/02/14 12:48:33;;;;;;;5.40;2.63;;;13.10;94.20;;;;;;4992918;28;20804;-65
2022/02/14 12:51:01;;;;;;;2.97;1.97;;;13.40;93.10;;;;;;4988176;28;20435;-66
2022/02/14 12:53:27;;;;;;;2.70;2.30;;;13.80;93.20;;;;;;4992636;28;20473;-66
2022/02/14 12:55:57;;;;;;;5.97;3.03;;;13.90;92.30;;;;;;4983735;28;20432;-66
2022/02/14 12:58:24;;;;;;;2.93;2.40;;;13.90;92.30;;;;;;4982103;28;20474;-66